Time;durP1;ratioP1;P1;durP2;ratioP2;P2;SDS_P1;SDS_P2;PMS_P1;PMS_P2;Temp;Humidity;BMP_temperature;BMP_pressure;BME280_temperature;BME280_humidity;BME280_pressure;Samples;Min_cycle;Max_cycle;Signal;HPM_P1;HPM_P2
2022/11/04 00:01:55;;;;;;;2.92;2.70;;;11.30;99.90;;;;;;5072541;28;20028;-79
2022/11/04 00:04:23;;;;;;;6.38;3.15;;;11.10;99.90;;;;;;5072322;28;20033;-79
2022/11/04 00:06:49;;;;;;;3.80;3.30;;;11.00;99.90;;;;;;5072816;28;20082;-79
2022/11/04 00:09:18;;;;;;;3.78;3.08;;;11.00;99.90;;;;;;5072357;28;20032;-79
2022/11/04 00:14:29;;;;;;;5.22;3.50;;;11.10;99.90;;;;;;5072564;28;20063;-79
2022/11/04 00:30:46;;;;;;;6.50;3.58;;;10.70;99.90;;;;;;5071989;28;20044;-79
2022/11/04 00:33:24;;;;;;;6.10;3.75;;;10.80;99.90;;;;;;5071896;28;20488;-80
2022/11/04 00:35:51;;;;;;;4.47;4.05;;;10.70;99.90;;;;;;5071597;28;20048;-79
2022/11/04 00:38:17;;;;;;;4.88;3.55;;;10.60;99.90;;;;;;5072425;28;20025;-79
2022/11/04 00:40:44;;;;;;;6.15;3.63;;;10.60;99.90;;;;;;5071665;28;20031;-79
2022/11/04 00:43:09;;;;;;;6.50;3.42;;;10.50;99.90;;;;;;5071916;28;20064;-79
2022/11/04 00:45:35;;;;;;;4.47;3.70;;;10.50;99.90;;;;;;5071941;28;20063;-79
2022/11/04 00:48:00;;;;;;;4.45;3.90;;;10.90;99.90;;;;;;5071880;28;20520;-79
2022/11/04 00:50:26;;;;;;;6.82;3.55;;;10.90;99.90;;;;;;5071811;28;20017;-79
2022/11/04 00:53:00;;;;;;;4.13;3.60;;;10.50;99.90;;;;;;5072393;28;20039;-79
2022/11/04 00:55:26;;;;;;;4.55;3.25;;;10.50;99.90;;;;;;5071730;28;20023;-79
2022/11/04 00:57:52;;;;;;;7.85;3.67;;;10.50;99.90;;;;;;5071848;28;20103;-79
2022/11/04 01:00:18;;;;;;;4.95;4.15;;;10.40;99.90;;;;;;5072059;28;20520;-79
2022/11/04 01:02:45;;;;;;;4.32;3.92;;;10.40;99.90;;;;;;5071853;28;20374;-79
2022/11/04 01:05:11;;;;;;;4.18;3.60;;;10.30;99.90;;;;;;5071778;28;20020;-79
2022/11/04 01:07:37;;;;;;;7.57;4.03;;;10.30;99.90;;;;;;5071666;28;20044;-79
2022/11/04 01:10:03;;;;;;;5.55;3.67;;;10.40;99.90;;;;;;5071339;28;20051;-79
2022/11/04 01:12:29;;;;;;;5.45;4.03;;;10.30;99.90;;;;;;5071630;28;20082;-79
2022/11/04 01:14:54;;;;;;;6.35;4.20;;;10.30;99.90;;;;;;5071563;28;20146;-79
2022/11/04 01:17:20;;;;;;;5.65;4.20;;;10.20;99.90;;;;;;5071641;28;20032;-79
2022/11/04 01:19:46;;;;;;;6.32;4.32;;;10.10;99.90;;;;;;5071715;28;20024;-79
2022/11/04 01:22:11;;;;;;;6.50;4.53;;;10.00;99.90;;;;;;5071637;28;20029;-79
2022/11/04 01:24:37;;;;;;;8.68;4.93;;;10.30;99.90;;;;;;5071118;28;20112;-79
2022/11/04 01:27:02;;;;;;;8.77;5.05;;;10.00;99.90;;;;;;5071461;28;20054;-79
2022/11/04 01:29:28;;;;;;;8.55;5.15;;;10.20;99.90;;;;;;5071504;28;20578;-79
2022/11/04 01:31:54;;;;;;;5.00;4.47;;;10.00;99.90;;;;;;5071288;28;20048;-79
2022/11/04 01:34:20;;;;;;;5.70;4.75;;;10.00;99.90;;;;;;5070342;28;20150;-79
2022/11/04 01:36:45;;;;;;;6.38;4.97;;;10.00;99.90;;;;;;5071471;28;20391;-79
2022/11/04 01:39:12;;;;;;;7.05;5.18;;;10.00;99.90;;;;;;5071016;28;20029;-79
2022/11/04 01:41:38;;;;;;;7.97;5.15;;;10.20;99.90;;;;;;5071432;28;20032;-80
2022/11/04 01:44:42;;;;;;;6.22;5.15;;;10.40;99.90;;;;;;5074659;28;20042;-79
2022/11/04 01:47:20;;;;;;;5.78;4.45;;;10.10;99.90;;;;;;5070201;28;20075;-79
2022/11/04 01:49:51;;;;;;;5.00;4.43;;;10.20;99.90;;;;;;5073777;28;20020;-79
2022/11/04 01:52:39;;;;;;;5.85;4.20;;;10.40;99.90;;;;;;5074928;28;20028;-79
2022/11/04 01:55:16;;;;;;;6.22;4.38;;;10.20;99.90;;;;;;5073898;28;20124;-79
2022/11/04 01:57:47;;;;;;;4.53;3.80;;;10.20;99.90;;;;;;5074612;28;20499;-79
2022/11/04 02:00:14;;;;;;;5.65;4.10;;;10.50;99.90;;;;;;5074630;28;20388;-79
2022/11/04 02:02:49;;;;;;;5.40;4.40;;;10.20;99.90;;;;;;5073367;28;20396;-79
2022/11/04 02:05:15;;;;;;;6.93;4.70;;;10.60;99.90;;;;;;5073607;28;20111;-79
2022/11/04 02:07:41;;;;;;;5.40;4.07;;;10.10;99.90;;;;;;5074365;28;20452;-79
2022/11/04 02:10:07;;;;;;;7.10;5.05;;;10.40;99.90;;;;;;5074567;28;20060;-79
2022/11/04 02:12:48;;;;;;;6.80;4.70;;;10.10;99.90;;;;;;5074344;28;20100;-79
2022/11/04 02:15:14;;;;;;;5.15;4.03;;;10.40;99.90;;;;;;5074466;28;20081;-79
2022/11/04 02:18:10;;;;;;;5.40;3.90;;;10.00;99.90;;;;;;5074843;28;20052;-79
2022/11/04 02:20:43;;;;;;;4.40;3.67;;;9.90;99.90;;;;;;5074181;28;20048;-77
2022/11/04 02:23:32;;;;;;;4.65;3.60;;;9.90;99.90;;;;;;5074530;28;20484;-79
2022/11/04 02:26:14;;;;;;;8.05;3.33;;;9.90;99.90;;;;;;5074395;28;20048;-79
2022/11/04 02:29:17;;;;;;;5.00;3.50;;;10.20;99.90;;;;;;5074262;28;20489;-79
2022/11/04 02:31:59;;;;;;;6.32;3.15;;;9.90;99.90;;;;;;5074110;28;20021;-79
2022/11/04 02:34:39;;;;;;;4.63;3.03;;;9.80;99.90;;;;;;5073695;28;20055;-79
2022/11/04 02:37:42;;;;;;;3.15;2.72;;;9.70;99.90;;;;;;5073597;28;20025;-79
2022/11/04 02:40:19;;;;;;;4.28;2.92;;;9.70;99.90;;;;;;5073987;28;20051;-79
2022/11/04 02:43:01;;;;;;;3.97;2.50;;;9.70;99.90;;;;;;5073689;28;20056;-79
2022/11/04 02:45:44;;;;;;;3.78;2.88;;;9.60;99.90;;;;;;5073978;28;20404;-79
2022/11/04 02:48:20;;;;;;;3.60;2.60;;;9.60;99.90;;;;;;5074155;28;20060;-79
2022/11/04 02:50:58;;;;;;;6.03;2.65;;;9.50;99.90;;;;;;5073490;28;20025;-79
2022/11/04 02:53:44;;;;;;;5.72;2.97;;;9.70;99.90;;;;;;5073848;28;20359;-79
2022/11/04 02:56:12;;;;;;;4.43;2.78;;;9.50;99.90;;;;;;5073604;28;20028;-79
2022/11/04 02:58:44;;;;;;;4.13;2.92;;;9.80;99.90;;;;;;5073932;28;20078;-79
2022/11/04 03:01:15;;;;;;;5.55;3.60;;;9.40;99.90;;;;;;5073370;28;20036;-79
2022/11/04 03:03:47;;;;;;;6.47;3.60;;;9.40;99.90;;;;;;5073439;28;20040;-79
2022/11/04 03:06:15;;;;;;;4.53;3.60;;;9.40;99.90;;;;;;5073142;28;20108;-79
2022/11/04 03:08:50;;;;;;;5.07;4.03;;;9.30;99.90;;;;;;5073404;28;20028;-79
2022/11/04 03:11:24;;;;;;;4.93;4.32;;;9.20;99.90;;;;;;5073300;28;20473;-79
2022/11/04 03:13:58;;;;;;;8.55;4.60;;;9.30;99.90;;;;;;5073680;28;20038;-79
2022/11/04 03:16:38;;;;;;;6.70;4.43;;;9.20;99.90;;;;;;5073153;28;20489;-79
2022/11/04 03:19:16;;;;;;;4.47;3.85;;;9.30;99.90;;;;;;5072645;28;20025;-79
2022/11/04 03:22:02;;;;;;;6.97;3.80;;;9.30;99.90;;;;;;5073077;28;20032;-79
2022/11/04 03:24:29;;;;;;;5.32;3.80;;;9.30;99.90;;;;;;5072930;28;20033;-79
2022/11/04 03:27:01;;;;;;;5.97;4.28;;;9.30;99.90;;;;;;5073260;28;20107;-79
2022/11/04 03:29:32;;;;;;;7.68;4.47;;;9.30;99.90;;;;;;5072993;28;20028;-80
2022/11/04 03:32:16;;;;;;;7.05;5.00;;;9.40;99.90;;;;;;5072953;28;20021;-79
2022/11/04 03:34:42;;;;;;;9.40;4.75;;;9.20;99.90;;;;;;5072148;28;20518;-79
2022/11/04 03:37:07;;;;;;;6.60;4.55;;;9.20;99.90;;;;;;5072772;28;20119;-79
2022/11/04 03:39:33;;;;;;;6.20;4.28;;;9.20;99.90;;;;;;5072939;28;20024;-79
2022/11/04 03:42:18;;;;;;;4.80;4.28;;;9.10;99.90;;;;;;5073028;28;20384;-79
2022/11/04 03:44:54;;;;;;;4.20;3.50;;;9.10;99.90;;;;;;5072720;28;20032;-79
2022/11/04 03:47:23;;;;;;;4.18;3.13;;;9.20;99.90;;;;;;5072582;28;20024;-79
2022/11/04 03:49:56;;;;;;;7.10;3.78;;;9.20;99.90;;;;;;5072385;28;20067;-79
2022/11/04 03:52:22;;;;;;;6.32;3.90;;;9.20;99.90;;;;;;5073026;28;20522;-79
2022/11/04 03:54:48;;;;;;;6.22;3.80;;;9.10;99.90;;;;;;5072569;28;20031;-79
2022/11/04 03:57:29;;;;;;;4.05;2.75;;;9.10;99.90;;;;;;5072545;28;20103;-79
2022/11/04 04:00:14;;;;;;;6.95;2.60;;;9.10;99.90;;;;;;5072281;28;20039;-79
2022/11/04 04:02:47;;;;;;;4.88;2.60;;;9.10;99.90;;;;;;5072003;28;20024;-79
2022/11/04 04:05:37;;;;;;;3.75;2.60;;;9.20;99.90;;;;;;5071981;28;20060;-79
2022/11/04 04:08:19;;;;;;;4.60;2.30;;;9.20;99.90;;;;;;5072706;28;20024;-79
2022/11/04 04:11:17;;;;;;;4.63;2.38;;;9.10;99.90;;;;;;5072397;28;20036;-79
2022/11/04 04:14:00;;;;;;;3.05;2.20;;;9.10;99.90;;;;;;4971334;28;20038;-79
2022/11/04 04:16:28;;;;;;;4.22;2.30;;;9.10;99.90;;;;;;4955007;28;20053;-79
2022/11/04 04:19:02;;;;;;;2.35;2.15;;;9.10;99.90;;;;;;4955083;28;20074;-79
2022/11/04 04:21:39;;;;;;;3.70;2.50;;;9.10;99.90;;;;;;4971370;28;20034;-79
2022/11/04 04:29:38;;;;;;;2.80;1.80;;;9.10;99.90;;;;;;4971864;28;20130;-79
2022/11/04 04:32:05;;;;;;;3.80;1.73;;;9.10;99.90;;;;;;4970785;28;20058;-79
2022/11/04 04:34:32;;;;;;;4.63;2.00;;;9.50;99.90;;;;;;4970927;28;20043;-79
2022/11/04 04:37:12;;;;;;;2.10;1.40;;;9.30;99.90;;;;;;4971240;28;20085;-79
2022/11/04 04:45:40;;;;;;;4.00;1.60;;;9.20;99.90;;;;;;4971428;28;20404;-79
2022/11/04 04:48:09;;;;;;;3.92;1.40;;;9.30;99.90;;;;;;4971236;28;20114;-79
2022/11/04 04:50:42;;;;;;;3.85;1.58;;;9.30;99.90;;;;;;5072164;28;20334;-79
2022/11/04 04:53:08;;;;;;;4.05;1.17;;;9.40;99.90;;;;;;5071874;28;20023;-79
2022/11/04 04:55:34;;;;;;;3.25;1.40;;;9.50;99.90;;;;;;5071926;28;20459;-79
2022/11/04 04:57:59;;;;;;;3.05;1.38;;;9.30;99.90;;;;;;5071870;28;20037;-79
2022/11/04 05:00:25;;;;;;;5.47;1.70;;;9.20;99.90;;;;;;5071666;28;20109;-79
2022/11/04 05:02:51;;;;;;;2.38;1.35;;;9.30;99.90;;;;;;5071887;28;20056;-79
2022/11/04 05:05:18;;;;;;;4.85;1.40;;;9.10;99.90;;;;;;5071826;28;20056;-79
2022/11/04 05:07:43;;;;;;;6.47;1.30;;;9.00;99.90;;;;;;5071679;28;20035;-79
2022/11/04 05:10:11;;;;;;;4.15;1.40;;;9.30;99.90;;;;;;5071771;28;20029;-79
2022/11/04 05:15:23;;;;;;;4.80;1.40;;;9.10;99.90;;;;;;5071712;28;20039;-79
2022/11/04 05:17:57;;;;;;;2.88;1.50;;;9.20;99.90;;;;;;5073174;28;20024;-79
2022/11/04 05:20:23;;;;;;;5.05;1.67;;;9.20;99.90;;;;;;5075470;28;20031;-79
2022/11/04 05:22:48;;;;;;;2.67;1.25;;;9.20;99.90;;;;;;5075364;28;20028;-79
2022/11/04 05:25:14;;;;;;;4.65;1.40;;;9.20;99.90;;;;;;5075247;28;20446;-79
2022/11/04 05:27:40;;;;;;;3.17;1.45;;;9.20;99.90;;;;;;5075343;28;20032;-79
2022/11/04 05:30:06;;;;;;;3.67;1.75;;;9.20;99.90;;;;;;5075292;28;20123;-79
2022/11/04 05:32:31;;;;;;;1.92;1.50;;;9.30;99.90;;;;;;5075065;28;20113;-79
2022/11/04 05:34:57;;;;;;;5.25;1.50;;;9.40;99.90;;;;;;5074842;28;20103;-79
2022/11/04 05:37:23;;;;;;;4.97;1.42;;;9.40;99.90;;;;;;5075017;28;20429;-79
2022/11/04 05:39:49;;;;;;;7.28;1.63;;;9.40;99.90;;;;;;5075101;28;20481;-79
2022/11/04 05:42:14;;;;;;;3.80;1.35;;;9.50;99.90;;;;;;5075263;28;20069;-79
2022/11/04 05:44:40;;;;;;;4.72;1.67;;;9.40;99.90;;;;;;5074909;28;20032;-79
2022/11/04 05:47:06;;;;;;;4.20;1.83;;;9.40;99.90;;;;;;5074796;28;20024;-79
2022/11/04 05:49:32;;;;;;;3.78;1.65;;;9.40;99.90;;;;;;5074941;28;20108;-79
2022/11/04 05:51:58;;;;;;;5.75;1.40;;;9.40;99.90;;;;;;5074766;28;20032;-79
2022/11/04 05:54:23;;;;;;;3.33;1.45;;;9.80;99.90;;;;;;5075165;28;20488;-79
2022/11/04 05:56:49;;;;;;;3.15;1.30;;;9.40;99.90;;;;;;5073806;28;20544;-79
2022/11/04 05:59:15;;;;;;;3.08;1.55;;;9.40;99.90;;;;;;5074347;28;20082;-79
2022/11/04 06:01:42;;;;;;;5.72;1.45;;;9.40;99.90;;;;;;5075260;28;20056;-79
2022/11/04 06:04:14;;;;;;;3.75;1.30;;;9.40;99.90;;;;;;5074501;28;20033;-80
2022/11/04 06:06:40;;;;;;;3.85;1.48;;;9.40;99.90;;;;;;5074663;28;20029;-80
2022/11/04 06:09:05;;;;;;;7.00;1.90;;;9.70;99.90;;;;;;5074487;28;20052;-80
2022/11/04 06:11:33;;;;;;;3.75;1.60;;;9.40;99.90;;;;;;5074736;28;20045;-80
2022/11/04 06:13:59;;;;;;;4.13;1.80;;;9.40;99.90;;;;;;5074200;28;20094;-80
2022/11/04 06:16:25;;;;;;;4.18;2.28;;;9.70;99.90;;;;;;5074473;28;20473;-80
2022/11/04 06:18:51;;;;;;;5.40;2.20;;;9.40;99.90;;;;;;5074224;28;20084;-80
2022/11/04 06:21:21;;;;;;;3.05;1.60;;;9.50;99.90;;;;;;5074397;28;20150;-80
2022/11/04 06:23:47;;;;;;;3.92;1.58;;;9.50;99.90;;;;;;5074079;28;20055;-80
2022/11/04 06:26:14;;;;;;;3.58;2.03;;;9.40;99.90;;;;;;5074385;28;20411;-80
2022/11/04 06:28:40;;;;;;;4.45;2.05;;;9.60;99.90;;;;;;5073491;28;20366;-80
2022/11/04 06:31:08;;;;;;;4.38;1.73;;;9.50;99.90;;;;;;5074053;28;20032;-80
2022/11/04 06:33:33;;;;;;;3.17;1.55;;;9.50;99.90;;;;;;5073972;28;20081;-81
2022/11/04 06:36:00;;;;;;;3.63;1.75;;;9.50;99.90;;;;;;5073838;28;20123;-80
2022/11/04 06:38:28;;;;;;;3.25;2.03;;;9.50;99.90;;;;;;5073880;28;20058;-80
2022/11/04 06:40:53;;;;;;;2.85;1.80;;;9.60;99.90;;;;;;5074172;28;20029;-80
2022/11/04 06:43:19;;;;;;;3.28;1.70;;;9.70;99.90;;;;;;5073703;28;20408;-80
2022/11/04 06:45:59;;;;;;;5.82;1.77;;;9.70;99.90;;;;;;5074186;28;20025;-80
2022/11/04 06:48:25;;;;;;;3.97;1.80;;;9.70;99.90;;;;;;5073969;28;20374;-79
2022/11/04 06:50:51;;;;;;;4.55;1.58;;;9.80;99.90;;;;;;5073961;28;20035;-80
2022/11/04 06:53:16;;;;;;;3.35;1.85;;;9.80;99.90;;;;;;5073647;28;20024;-80
2022/11/04 06:55:42;;;;;;;5.97;1.52;;;10.20;99.90;;;;;;5073608;28;20431;-80
2022/11/04 06:58:08;;;;;;;4.95;1.77;;;10.00;99.90;;;;;;5072383;28;20068;-80
2022/11/04 07:00:34;;;;;;;3.85;1.83;;;10.00;99.90;;;;;;5073242;28;20032;-80
2022/11/04 07:02:59;;;;;;;2.13;1.48;;;10.30;99.90;;;;;;5073753;28;20036;-80
2022/11/04 07:05:25;;;;;;;3.67;1.65;;;10.20;99.90;;;;;;5073544;28;20074;-80
2022/11/04 07:07:50;;;;;;;5.75;1.60;;;10.10;99.90;;;;;;5074192;28;20016;-80
2022/11/04 07:10:16;;;;;;;3.60;1.40;;;10.20;99.90;;;;;;5073372;28;20033;-80
2022/11/04 07:12:42;;;;;;;3.72;1.23;;;10.20;99.90;;;;;;5072998;28;20052;-80
2022/11/04 07:15:09;;;;;;;4.18;1.20;;;10.60;99.90;;;;;;5073270;28;20021;-80
2022/11/04 07:17:35;;;;;;;6.45;1.75;;;10.40;99.90;;;;;;5073444;28;20048;-80
2022/11/04 07:20:00;;;;;;;2.83;1.20;;;10.80;99.90;;;;;;5073099;28;20052;-80
2022/11/04 07:22:26;;;;;;;4.97;1.20;;;10.40;99.90;;;;;;5072978;28;20060;-80
2022/11/04 07:24:52;;;;;;;6.00;1.88;;;10.70;99.90;;;;;;5071720;28;20082;-80
2022/11/04 07:27:17;;;;;;;7.25;1.63;;;10.50;99.90;;;;;;5073066;28;20025;-80
2022/11/04 07:29:43;;;;;;;2.15;1.00;;;10.30;99.90;;;;;;5072958;28;20330;-80
2022/11/04 07:32:08;;;;;;;3.72;1.20;;;10.40;99.90;;;;;;5072822;28;20055;-80
2022/11/04 07:34:34;;;;;;;4.28;1.20;;;10.80;99.90;;;;;;5072575;28;20454;-80
2022/11/04 07:36:59;;;;;;;3.10;1.33;;;10.60;99.90;;;;;;5072894;28;20029;-80
2022/11/04 07:39:25;;;;;;;3.35;1.20;;;10.90;99.90;;;;;;5073227;28;20032;-80
2022/11/04 07:41:51;;;;;;;4.20;1.00;;;10.60;99.90;;;;;;5071646;28;20024;-80
2022/11/04 07:44:16;;;;;;;4.03;1.02;;;10.90;99.90;;;;;;5071492;28;20038;-80
2022/11/04 07:46:42;;;;;;;3.47;0.98;;;10.90;99.90;;;;;;5072640;28;20021;-80
2022/11/04 07:49:07;;;;;;;2.85;1.13;;;10.80;99.90;;;;;;5072598;28;20041;-80
2022/11/04 07:51:33;;;;;;;4.13;0.90;;;11.10;99.90;;;;;;5073490;28;20025;-80
2022/11/04 07:53:59;;;;;;;4.32;1.20;;;10.90;99.90;;;;;;5072992;28;20661;-80
2022/11/04 07:56:25;;;;;;;3.05;1.40;;;11.00;99.90;;;;;;5072130;28;20108;-80
2022/11/04 07:58:51;;;;;;;7.32;2.53;;;11.00;99.90;;;;;;5072585;28;20056;-80
2022/11/04 08:01:20;;;;;;;5.30;1.20;;;11.30;99.90;;;;;;5072292;28;20535;-80
2022/11/04 08:03:46;;;;;;;3.42;1.05;;;11.50;99.90;;;;;;5071160;28;21270;-81
2022/11/04 08:06:13;;;;;;;1.75;0.93;;;11.50;99.90;;;;;;5067926;28;20389;-81
2022/11/04 08:08:41;;;;;;;2.88;1.30;;;11.50;99.90;;;;;;5071973;28;20451;-81
2022/11/04 08:11:16;;;;;;;7.32;1.35;;;12.00;99.90;;;;;;5084107;28;20017;-82
2022/11/04 08:13:42;;;;;;;5.35;1.35;;;11.60;99.90;;;;;;5052997;28;20052;-82
2022/11/04 08:16:14;;;;;;;3.47;1.38;;;11.60;99.90;;;;;;5052090;28;20052;-81
2022/11/04 08:18:41;;;;;;;4.68;1.50;;;11.50;99.90;;;;;;5052120;28;20527;-83
2022/11/04 08:21:08;;;;;;;2.35;1.35;;;11.50;99.90;;;;;;5052076;28;20028;-83
2022/11/04 08:23:34;;;;;;;2.97;1.20;;;11.50;99.90;;;;;;5058003;28;20061;-81
2022/11/04 08:26:07;;;;;;;4.20;1.23;;;11.60;99.90;;;;;;5071897;28;20074;-82
2022/11/04 08:28:33;;;;;;;4.47;1.67;;;11.50;99.90;;;;;;5071961;28;20037;-81
2022/11/04 08:31:25;;;;;;;2.13;1.23;;;11.40;99.90;;;;;;5071948;28;20028;-83
2022/11/04 08:33:52;;;;;;;2.25;1.13;;;11.40;99.90;;;;;;5056801;28;20028;-81
2022/11/04 08:36:20;;;;;;;3.65;0.85;;;11.40;99.90;;;;;;5071736;28;20049;-79
2022/11/04 08:38:46;;;;;;;2.47;0.98;;;11.70;99.90;;;;;;5071184;28;20507;-80
2022/11/04 08:41:14;;;;;;;1.83;1.00;;;11.50;99.90;;;;;;5072224;28;20025;-88
2022/11/04 08:43:40;;;;;;;2.08;1.02;;;11.50;99.90;;;;;;5071108;28;20439;-81
2022/11/04 08:46:07;;;;;;;2.70;0.82;;;11.50;99.90;;;;;;5072244;28;20488;-81
2022/11/04 08:48:35;;;;;;;2.75;1.15;;;11.60;99.90;;;;;;5071951;28;20032;-80
2022/11/04 08:51:01;;;;;;;3.28;1.10;;;11.70;99.90;;;;;;5072597;28;20052;-80
2022/11/04 08:53:27;;;;;;;5.28;1.08;;;11.80;99.90;;;;;;5075836;28;20086;-80
2022/11/04 08:55:53;;;;;;;2.17;0.95;;;11.80;99.90;;;;;;5076166;28;20508;-80
2022/11/04 08:58:18;;;;;;;2.97;0.73;;;12.10;99.90;;;;;;5075936;28;20101;-80
2022/11/04 09:00:44;;;;;;;4.47;1.00;;;11.70;99.90;;;;;;5075878;28;20028;-80
2022/11/04 09:03:10;;;;;;;3.20;0.90;;;11.70;99.90;;;;;;5076165;28;20064;-80
2022/11/04 09:05:43;;;;;;;1.52;1.00;;;11.70;99.90;;;;;;5075796;28;20087;-80
2022/11/04 09:08:13;;;;;;;2.92;0.82;;;11.30;99.90;;;;;;5075394;28;20111;-81
2022/11/04 09:10:46;;;;;;;2.30;0.90;;;11.30;99.90;;;;;;5075644;28;20035;-80
2022/11/04 09:13:14;;;;;;;2.28;0.90;;;11.60;99.90;;;;;;5075536;28;20120;-80
2022/11/04 09:15:40;;;;;;;1.98;0.88;;;11.60;99.90;;;;;;5075546;28;20522;-80
2022/11/04 09:18:06;;;;;;;2.58;0.80;;;11.60;99.90;;;;;;5075981;28;20112;-81
2022/11/04 09:20:32;;;;;;;2.97;1.20;;;11.70;99.90;;;;;;5075504;28;20028;-81
2022/11/04 09:22:58;;;;;;;3.17;0.90;;;11.50;99.90;;;;;;5075014;28;20059;-80
2022/11/04 09:25:23;;;;;;;3.42;1.40;;;11.50;99.90;;;;;;5075746;28;20509;-80
2022/11/04 09:27:49;;;;;;;3.10;0.80;;;11.50;99.90;;;;;;5075317;28;20210;-80
2022/11/04 09:30:15;;;;;;;3.22;1.33;;;11.40;99.90;;;;;;5075736;28;20032;-81
2022/11/04 09:32:40;;;;;;;3.97;1.02;;;11.40;99.90;;;;;;5075094;28;20097;-81
2022/11/04 09:35:07;;;;;;;2.72;0.90;;;11.10;99.90;;;;;;5074887;28;20044;-80
2022/11/04 09:37:32;;;;;;;2.58;0.98;;;11.00;99.90;;;;;;5075052;28;20024;-80
2022/11/04 09:39:58;;;;;;;1.60;0.50;;;10.90;99.90;;;;;;5075258;28;20033;-81
2022/11/04 09:42:32;;;;;;;1.45;0.85;;;10.60;99.90;;;;;;5074935;28;20023;-80
2022/11/04 09:45:08;;;;;;;1.92;1.02;;;10.20;99.90;;;;;;5075083;28;20032;-81
2022/11/04 09:47:36;;;;;;;5.85;1.60;;;9.50;99.90;;;;;;5074981;28;20377;-81
2022/11/04 09:50:05;;;;;;;2.05;1.00;;;9.40;99.90;;;;;;5074858;28;20024;-81
2022/11/04 09:52:37;;;;;;;3.67;1.08;;;9.50;1.00;;;;;;5074526;28;20484;-81
2022/11/04 09:55:28;;;;;;;2.33;1.10;;;9.20;1.00;;;;;;5075400;28;20043;-80
2022/11/04 09:57:57;;;;;;;4.07;1.15;;;9.30;99.90;;;;;;5074813;28;20028;-81
2022/11/04 10:00:23;;;;;;;2.95;1.05;;;9.30;99.90;;;;;;5075172;28;20032;-81
2022/11/04 10:03:13;;;;;;;4.05;1.40;;;9.50;99.90;;;;;;5074160;28;20025;-81
2022/11/04 10:05:57;;;;;;;2.70;1.15;;;9.30;99.90;;;;;;5074404;28;20143;-81
2022/11/04 10:08:22;;;;;;;2.80;1.40;;;9.50;99.90;;;;;;5075163;28;20021;-80
2022/11/04 10:10:58;;;;;;;4.45;1.60;;;9.20;1.00;;;;;;5074498;28;20035;-81
2022/11/04 10:13:38;;;;;;;3.45;1.20;;;9.50;1.00;;;;;;5074640;28;20178;-80
2022/11/04 10:16:16;;;;;;;6.25;1.20;;;9.40;1.00;;;;;;5074620;28;20063;-80
2022/11/04 10:19:01;;;;;;;5.13;1.38;;;9.50;99.90;;;;;;5074426;28;20081;-80
2022/11/04 10:21:59;;;;;;;4.90;1.50;;;9.60;99.90;;;;;;5074186;28;20032;-81
2022/11/04 10:24:35;;;;;;;1.75;1.15;;;9.50;99.90;;;;;;4973250;28;20062;-80
2022/11/04 10:27:11;;;;;;;2.88;1.08;;;9.70;99.90;;;;;;4973371;28;20081;-80
2022/11/04 10:29:42;;;;;;;6.57;1.20;;;9.70;99.90;;;;;;4973123;28;20039;-81
2022/11/04 10:32:24;;;;;;;3.28;1.20;;;9.60;99.90;;;;;;4973466;28;20058;-81
2022/11/04 10:34:54;;;;;;;2.10;0.90;;;9.60;61.80;;;;;;4972658;28;20054;-81
2022/11/04 10:37:20;;;;;;;1.52;1.00;;;9.50;99.90;;;;;;4973619;28;20034;-81
2022/11/04 10:39:46;;;;;;;6.85;1.40;;;9.40;99.90;;;;;;4973015;28;20035;-81
2022/11/04 10:42:16;;;;;;;5.97;0.90;;;9.90;99.90;;;;;;4973078;28;20051;-81
2022/11/04 10:44:44;;;;;;;3.88;1.20;;;9.40;99.90;;;;;;4973034;28;20043;-81
2022/11/04 10:47:18;;;;;;;2.45;1.30;;;9.60;99.90;;;;;;4973347;28;20031;-81
2022/11/04 10:50:08;;;;;;;4.18;1.08;;;9.50;47.80;;;;;;4972737;28;20162;-81
2022/11/04 10:52:35;;;;;;;4.03;1.70;;;9.70;43.30;;;;;;4972992;28;20034;-81
2022/11/04 10:55:00;;;;;;;4.55;1.50;;;10.40;47.00;;;;;;4972830;28;20050;-81
2022/11/04 10:57:26;;;;;;;3.78;1.13;;;10.50;6.80;;;;;;4973263;28;20031;-81
2022/11/04 11:00:00;;;;;;;3.15;1.33;;;9.90;1.00;;;;;;4973014;28;20031;-81
2022/11/04 11:02:48;;;;;;;4.70;1.50;;;10.20;1.00;;;;;;5073505;28;20044;-80
2022/11/04 11:05:16;;;;;;;2.08;1.50;;;10.30;1.00;;;;;;5073873;28;20086;-81
2022/11/04 11:07:47;;;;;;;2.50;1.55;;;10.30;1.00;;;;;;5073458;28;20549;-80
2022/11/04 11:10:22;;;;;;;4.13;1.15;;;10.30;1.00;;;;;;5073574;28;20040;-81
2022/11/04 11:13:22;;;;;;;2.88;1.50;;;10.60;1.00;;;;;;5074072;28;20107;-80
2022/11/04 11:15:50;;;;;;;1.70;1.10;;;10.80;1.00;;;;;;5072789;28;20021;-80
2022/11/04 11:18:21;;;;;;;2.15;1.10;;;10.70;1.00;;;;;;5072984;28;20035;-80
2022/11/04 11:21:02;;;;;;;2.00;1.27;;;10.60;1.00;;;;;;5073179;28;20036;-80
2022/11/04 11:23:38;;;;;;;2.40;1.50;;;10.90;1.00;;;;;;5072971;28;20507;-80
2022/11/04 11:26:07;;;;;;;3.58;0.80;;;11.20;1.00;;;;;;5073129;28;20020;-80
2022/11/04 11:28:37;;;;;;;2.78;1.90;;;11.40;99.90;;;;;;5073064;28;20032;-80
2022/11/04 11:31:07;;;;;;;4.00;1.90;;;11.50;99.90;;;;;;5073129;28;20016;-80
2022/11/04 11:33:40;;;;;;;2.38;1.30;;;11.70;99.90;;;;;;5072697;28;20104;-80
2022/11/04 11:36:19;;;;;;;3.70;1.15;;;11.80;99.90;;;;;;5073114;28;20400;-80
2022/11/04 11:39:12;;;;;;;1.77;1.05;;;12.20;99.90;;;;;;5073043;28;20029;-80
2022/11/04 11:42:05;;;;;;;2.45;1.55;;;12.30;99.90;;;;;;5072784;28;20036;-80
2022/11/04 11:44:32;;;;;;;2.88;1.25;;;13.50;99.90;;;;;;5072612;28;20040;-80
2022/11/04 11:47:01;;;;;;;3.70;1.42;;;14.50;99.90;;;;;;5072428;28;20496;-80
2022/11/04 11:49:33;;;;;;;2.25;1.40;;;14.50;99.90;;;;;;5072779;28;20099;-80
2022/11/04 11:52:17;;;;;;;3.00;1.40;;;14.20;99.90;;;;;;5072523;28;20572;-80
2022/11/04 11:54:48;;;;;;;3.58;1.20;;;14.80;99.90;;;;;;5072612;28;20031;-80
2022/11/04 11:57:45;;;;;;;2.60;1.08;;;16.70;99.90;;;;;;5072786;28;20067;-80
2022/11/04 12:00:17;;;;;;;1.63;0.90;;;17.80;99.90;;;;;;5072586;28;20029;-80
2022/11/04 12:03:07;;;;;;;3.50;0.90;;;16.70;99.90;;;;;;5072358;28;20028;-80
2022/11/04 12:05:45;;;;;;;2.90;0.98;;;16.50;99.90;;;;;;5072474;28;20025;-80
2022/11/04 12:08:32;;;;;;;1.13;1.00;;;17.10;99.90;;;;;;5072208;28;20025;-80
2022/11/04 12:11:20;;;;;;;2.72;0.98;;;19.20;99.90;;;;;;5072337;28;20020;-80
2022/11/04 12:13:54;;;;;;;2.35;1.05;;;20.90;99.90;;;;;;5071101;28;20029;-80
2022/11/04 12:16:45;;;;;;;1.73;0.90;;;20.50;99.90;;;;;;5071901;28;20071;-80
2022/11/04 12:19:45;;;;;;;1.63;1.10;;;18.70;99.90;;;;;;5072190;28;20023;-80
2022/11/04 12:22:46;;;;;;;2.95;1.30;;;17.90;99.90;;;;;;5072184;28;20085;-80
2022/11/04 12:25:35;;;;;;;2.45;1.00;;;17.10;99.90;;;;;;5068897;28;20041;-80
2022/11/04 12:28:12;;;;;;;2.10;1.30;;;16.10;99.90;;;;;;5059965;28;20556;-80
2022/11/04 12:31:16;;;;;;;2.80;1.00;;;16.00;99.90;;;;;;5071757;28;20490;-80
2022/11/04 12:33:51;;;;;;;2.75;0.80;;;15.80;99.90;;;;;;5051460;28;20041;-80
2022/11/04 12:36:41;;;;;;;2.80;1.10;;;15.50;99.90;;;;;;5072003;28;20504;-80
2022/11/04 12:39:12;;;;;;;3.30;1.20;;;15.20;99.90;;;;;;5072285;28;20056;-80
2022/11/04 12:42:07;;;;;;;2.67;1.00;;;15.80;99.90;;;;;;5070758;28;20025;-80
2022/11/04 12:44:43;;;;;;;4.13;1.10;;;19.90;99.90;;;;;;5049823;28;20044;-80
2022/11/04 12:47:24;;;;;;;1.85;0.90;;;18.80;99.90;;;;;;5072268;28;20446;-80
2022/11/04 12:50:05;;;;;;;2.35;1.00;;;17.70;99.90;;;;;;5072257;28;20029;-80
2022/11/04 12:52:58;;;;;;;2.40;1.02;;;16.80;99.90;;;;;;5072015;28;20040;-80
2022/11/04 12:55:46;;;;;;;1.58;0.80;;;15.80;99.90;;;;;;5072389;28;20111;-80
2022/11/04 12:58:34;;;;;;;2.75;1.00;;;15.20;99.90;;;;;;5071945;28;20039;-80
2022/11/04 13:01:22;;;;;;;3.78;1.40;;;14.70;99.90;;;;;;5071520;28;20055;-80
2022/11/04 13:03:54;;;;;;;10.50;3.95;;;14.40;99.90;;;;;;5071928;28;20493;-80
2022/11/04 13:07:02;;;;;;;5.40;2.42;;;14.10;99.90;;;;;;5071898;28;20024;-80
2022/11/04 13:09:45;;;;;;;3.28;2.00;;;13.80;99.90;;;;;;5072190;28;20020;-80
2022/11/04 13:12:19;;;;;;;5.80;2.28;;;13.60;99.90;;;;;;5073400;28;20090;-80
2022/11/04 13:15:00;;;;;;;2.40;1.60;;;13.60;99.90;;;;;;5071871;28;20395;-80
2022/11/04 13:17:30;;;;;;;2.78;1.60;;;13.90;99.90;;;;;;5071828;28;20025;-80
2022/11/04 13:20:04;;;;;;;3.58;1.83;;;17.50;99.90;;;;;;5071500;28;20016;-80
2022/11/04 13:22:36;;;;;;;2.60;1.70;;;16.50;99.90;;;;;;5071674;28;20032;-80
2022/11/04 13:25:22;;;;;;;4.70;2.00;;;15.20;99.90;;;;;;5071652;28;20562;-80
2022/11/04 13:27:48;;;;;;;2.28;1.70;;;14.60;99.90;;;;;;5071292;28;20017;-80
2022/11/04 13:30:14;;;;;;;2.28;1.25;;;14.40;99.90;;;;;;5070299;28;20027;-80
2022/11/04 13:32:52;;;;;;;2.45;1.35;;;14.30;99.90;;;;;;5071412;28;20369;-80
2022/11/04 13:35:23;;;;;;;4.60;1.60;;;14.20;99.90;;;;;;5071434;28;20106;-80
2022/11/04 13:38:22;;;;;;;4.13;2.30;;;14.50;99.90;;;;;;5071582;28;20029;-80
2022/11/04 13:40:51;;;;;;;4.28;1.50;;;14.30;99.90;;;;;;5070430;28;20440;-80
2022/11/04 13:43:38;;;;;;;4.85;1.67;;;13.80;99.90;;;;;;5075127;28;20048;-80
2022/11/04 13:46:33;;;;;;;2.83;1.50;;;13.70;99.90;;;;;;5075349;28;20031;-80
2022/11/04 13:49:13;;;;;;;3.13;1.85;;;13.30;99.90;;;;;;5076073;28;20020;-80